sensor_id;sensor_type;location;lat;lon;timestamp;P1;durP1;ratioP1;P2;durP2;ratioP2
60492;SDS011;46341;51.290;-2.474;2023-04-06T00:01:44;11.27;;;10.13;;
60492;SDS011;46341;51.290;-2.474;2023-04-06T00:04:10;11.93;;;10.80;;
60492;SDS011;46341;51.290;-2.474;2023-04-06T00:06:37;11.77;;;10.65;;
60492;SDS011;46341;51.290;-2.474;2023-04-06T00:09:03;10.60;;;9.70;;
60492;SDS011;46341;51.290;-2.474;2023-04-06T00:11:29;10.65;;;9.77;;
60492;SDS011;46341;51.290;-2.474;2023-04-06T00:13:56;10.27;;;9.38;;
60492;SDS011;46341;51.290;-2.474;2023-04-06T00:16:22;10.52;;;9.63;;
60492;SDS011;46341;51.290;-2.474;2023-04-06T00:21:16;10.43;;;9.48;;
60492;SDS011;46341;51.290;-2.474;2023-04-06T00:23:43;9.98;;;9.05;;
60492;SDS011;46341;51.290;-2.474;2023-04-06T00:26:09;11.73;;;10.52;;
60492;SDS011;46341;51.290;-2.474;2023-04-06T00:28:37;10.38;;;9.48;;
60492;SDS011;46341;51.290;-2.474;2023-04-06T00:31:03;10.80;;;9.90;;
60492;SDS011;46341;51.290;-2.474;2023-04-06T00:33:29;10.57;;;9.60;;
60492;SDS011;46341;51.290;-2.474;2023-04-06T00:35:56;10.43;;;9.45;;
60492;SDS011;46341;51.290;-2.474;2023-04-06T00:38:22;11.35;;;10.25;;
60492;SDS011;46341;51.290;-2.474;2023-04-06T00:40:49;11.10;;;10.13;;
60492;SDS011;46341;51.290;-2.474;2023-04-06T00:43:15;21.58;;;16.90;;
60492;SDS011;46341;51.290;-2.474;2023-04-06T00:45:42;10.20;;;9.32;;
60492;SDS011;46341;51.290;-2.474;2023-04-06T00:48:08;10.60;;;9.73;;
60492;SDS011;46341;51.290;-2.474;2023-04-06T00:50:35;10.82;;;9.93;;
60492;SDS011;46341;51.290;-2.474;2023-04-06T00:53:01;15.07;;;13.50;;
60492;SDS011;46341;51.290;-2.474;2023-04-06T00:55:28;12.13;;;11.02;;
60492;SDS011;46341;51.290;-2.474;2023-04-06T00:57:55;10.88;;;9.98;;
60492;SDS011;46341;51.290;-2.474;2023-04-06T01:00:23;10.15;;;9.27;;
60492;SDS011;46341;51.290;-2.474;2023-04-06T01:02:49;10.45;;;9.43;;
60492;SDS011;46341;51.290;-2.474;2023-04-06T01:05:16;10.10;;;9.20;;
60492;SDS011;46341;51.290;-2.474;2023-04-06T01:07:42;10.20;;;9.30;;
60492;SDS011;46341;51.290;-2.474;2023-04-06T01:10:08;9.65;;;8.85;;
60492;SDS011;46341;51.290;-2.474;2023-04-06T01:12:35;9.35;;;8.55;;
60492;SDS011;46341;51.290;-2.474;2023-04-06T01:15:03;9.00;;;8.25;;
60492;SDS011;46341;51.290;-2.474;2023-04-06T01:17:30;8.02;;;7.43;;
60492;SDS011;46341;51.290;-2.474;2023-04-06T01:19:56;8.13;;;7.40;;
60492;SDS011;46341;51.290;-2.474;2023-04-06T01:22:23;7.35;;;6.75;;
60492;SDS011;46341;51.290;-2.474;2023-04-06T01:24:50;7.15;;;6.55;;
60492;SDS011;46341;51.290;-2.474;2023-04-06T01:27:16;6.65;;;6.15;;
60492;SDS011;46341;51.290;-2.474;2023-04-06T01:29:43;6.35;;;5.85;;
60492;SDS011;46341;51.290;-2.474;2023-04-06T01:32:09;6.72;;;6.20;;
60492;SDS011;46341;51.290;-2.474;2023-04-06T01:34:35;6.63;;;6.13;;
60492;SDS011;46341;51.290;-2.474;2023-04-06T01:37:02;7.07;;;6.47;;
60492;SDS011;46341;51.290;-2.474;2023-04-06T01:39:28;6.53;;;6.03;;
60492;SDS011;46341;51.290;-2.474;2023-04-06T01:41:55;7.07;;;6.47;;
60492;SDS011;46341;51.290;-2.474;2023-04-06T01:44:21;7.07;;;6.47;;
60492;SDS011;46341;51.290;-2.474;2023-04-06T01:46:47;6.85;;;6.35;;
60492;SDS011;46341;51.290;-2.474;2023-04-06T01:49:14;8.15;;;6.10;;
60492;SDS011;46341;51.290;-2.474;2023-04-06T01:51:40;6.00;;;5.50;;
60492;SDS011;46341;51.290;-2.474;2023-04-06T01:54:07;5.53;;;5.13;;
60492;SDS011;46341;51.290;-2.474;2023-04-06T01:56:33;5.40;;;5.00;;
60492;SDS011;46341;51.290;-2.474;2023-04-06T01:59:00;5.57;;;5.15;;
60492;SDS011;46341;51.290;-2.474;2023-04-06T02:01:26;6.97;;;6.38;;
60492;SDS011;46341;51.290;-2.474;2023-04-06T02:03:53;6.43;;;5.90;;
60492;SDS011;46341;51.290;-2.474;2023-04-06T02:06:19;7.82;;;7.15;;
60492;SDS011;46341;51.290;-2.474;2023-04-06T02:08:46;7.97;;;7.28;;
60492;SDS011;46341;51.290;-2.474;2023-04-06T02:11:13;8.10;;;7.32;;
60492;SDS011;46341;51.290;-2.474;2023-04-06T02:13:39;8.23;;;7.50;;
60492;SDS011;46341;51.290;-2.474;2023-04-06T02:16:05;7.93;;;7.22;;
60492;SDS011;46341;51.290;-2.474;2023-04-06T02:18:32;7.82;;;7.20;;
60492;SDS011;46341;51.290;-2.474;2023-04-06T02:20:58;6.70;;;6.10;;
60492;SDS011;46341;51.290;-2.474;2023-04-06T02:23:25;4.25;;;3.95;;
60492;SDS011;46341;51.290;-2.474;2023-04-06T02:25:51;2.60;;;2.40;;
60492;SDS011;46341;51.290;-2.474;2023-04-06T02:28:17;1.70;;;1.60;;
60492;SDS011;46341;51.290;-2.474;2023-04-06T02:30:44;1.23;;;1.00;;
60492;SDS011;46341;51.290;-2.474;2023-04-06T02:33:10;0.75;;;0.75;;
60492;SDS011;46341;51.290;-2.474;2023-04-06T02:35:37;0.50;;;0.47;;
60492;SDS011;46341;51.290;-2.474;2023-04-06T02:38:03;0.57;;;0.43;;
60492;SDS011;46341;51.290;-2.474;2023-04-06T02:40:29;0.55;;;0.30;;
60492;SDS011;46341;51.290;-2.474;2023-04-06T02:42:56;0.60;;;0.30;;
60492;SDS011;46341;51.290;-2.474;2023-04-06T02:45:22;0.22;;;0.20;;
60492;SDS011;46341;51.290;-2.474;2023-04-06T02:47:48;0.43;;;0.30;;
60492;SDS011;46341;51.290;-2.474;2023-04-06T02:50:15;1.13;;;0.30;;
60492;SDS011;46341;51.290;-2.474;2023-04-06T02:52:41;1.95;;;0.30;;
60492;SDS011;46341;51.290;-2.474;2023-04-06T02:55:08;3.47;;;0.50;;
60492;SDS011;46341;51.290;-2.474;2023-04-06T02:57:34;0.68;;;0.15;;
60492;SDS011;46341;51.290;-2.474;2023-04-06T03:00:01;0.88;;;0.25;;
60492;SDS011;46341;51.290;-2.474;2023-04-06T03:02:27;2.30;;;0.55;;
60492;SDS011;46341;51.290;-2.474;2023-04-06T03:04:54;2.17;;;0.40;;
60492;SDS011;46341;51.290;-2.474;2023-04-06T03:07:20;1.50;;;0.32;;
60492;SDS011;46341;51.290;-2.474;2023-04-06T03:09:47;1.52;;;0.40;;
60492;SDS011;46341;51.290;-2.474;2023-04-06T03:12:13;3.03;;;0.40;;
60492;SDS011;46341;51.290;-2.474;2023-04-06T03:14:40;3.25;;;0.47;;
60492;SDS011;46341;51.290;-2.474;2023-04-06T03:17:06;2.03;;;0.40;;
60492;SDS011;46341;51.290;-2.474;2023-04-06T03:19:32;2.60;;;0.60;;
60492;SDS011;46341;51.290;-2.474;2023-04-06T03:21:59;2.75;;;0.63;;
60492;SDS011;46341;51.290;-2.474;2023-04-06T03:24:25;3.42;;;0.60;;
60492;SDS011;46341;51.290;-2.474;2023-04-06T03:26:51;2.20;;;0.52;;
60492;SDS011;46341;51.290;-2.474;2023-04-06T03:29:18;2.42;;;0.50;;
60492;SDS011;46341;51.290;-2.474;2023-04-06T03:31:44;4.18;;;0.90;;
60492;SDS011;46341;51.290;-2.474;2023-04-06T03:34:11;2.17;;;0.70;;
60492;SDS011;46341;51.290;-2.474;2023-04-06T03:36:37;2.95;;;0.80;;
60492;SDS011;46341;51.290;-2.474;2023-04-06T03:39:04;3.10;;;0.70;;
60492;SDS011;46341;51.290;-2.474;2023-04-06T03:41:30;4.32;;;0.80;;
60492;SDS011;46341;51.290;-2.474;2023-04-06T03:43:57;4.32;;;1.00;;
60492;SDS011;46341;51.290;-2.474;2023-04-06T03:46:23;4.25;;;1.08;;
60492;SDS011;46341;51.290;-2.474;2023-04-06T03:48:50;5.28;;;0.98;;
60492;SDS011;46341;51.290;-2.474;2023-04-06T03:51:16;6.78;;;1.50;;
60492;SDS011;46341;51.290;-2.474;2023-04-06T03:53:42;6.85;;;1.48;;
60492;SDS011;46341;51.290;-2.474;2023-04-06T03:56:09;6.68;;;1.13;;
60492;SDS011;46341;51.290;-2.474;2023-04-06T03:58:35;6.30;;;1.48;;
60492;SDS011;46341;51.290;-2.474;2023-04-06T04:01:02;8.93;;;2.10;;
60492;SDS011;46341;51.290;-2.474;2023-04-06T04:03:28;10.15;;;2.83;;
60492;SDS011;46341;51.290;-2.474;2023-04-06T04:05:55;12.55;;;2.13;;
60492;SDS011;46341;51.290;-2.474;2023-04-06T04:08:21;11.85;;;2.35;;
60492;SDS011;46341;51.290;-2.474;2023-04-06T04:10:48;11.70;;;2.20;;
60492;SDS011;46341;51.290;-2.474;2023-04-06T04:13:14;13.93;;;2.25;;
60492;SDS011;46341;51.290;-2.474;2023-04-06T04:15:40;15.52;;;2.40;;
60492;SDS011;46341;51.290;-2.474;2023-04-06T04:18:07;14.82;;;2.47;;
60492;SDS011;46341;51.290;-2.474;2023-04-06T04:20:33;17.10;;;2.70;;
60492;SDS011;46341;51.290;-2.474;2023-04-06T04:23:00;12.75;;;2.58;;
60492;SDS011;46341;51.290;-2.474;2023-04-06T04:25:26;15.27;;;2.65;;
60492;SDS011;46341;51.290;-2.474;2023-04-06T04:27:53;15.80;;;3.42;;
60492;SDS011;46341;51.290;-2.474;2023-04-06T04:30:19;9.80;;;2.25;;
60492;SDS011;46341;51.290;-2.474;2023-04-06T04:32:46;11.05;;;2.67;;
60492;SDS011;46341;51.290;-2.474;2023-04-06T04:35:12;11.52;;;2.05;;
60492;SDS011;46341;51.290;-2.474;2023-04-06T04:37:40;6.53;;;1.63;;
60492;SDS011;46341;51.290;-2.474;2023-04-06T04:40:07;9.48;;;1.80;;
60492;SDS011;46341;51.290;-2.474;2023-04-06T04:42:33;12.50;;;2.85;;
60492;SDS011;46341;51.290;-2.474;2023-04-06T04:45:00;10.25;;;2.17;;
60492;SDS011;46341;51.290;-2.474;2023-04-06T04:47:26;8.32;;;1.75;;
60492;SDS011;46341;51.290;-2.474;2023-04-06T04:49:53;8.02;;;1.88;;
60492;SDS011;46341;51.290;-2.474;2023-04-06T04:52:19;9.82;;;2.10;;
60492;SDS011;46341;51.290;-2.474;2023-04-06T04:54:45;10.48;;;2.10;;
60492;SDS011;46341;51.290;-2.474;2023-04-06T04:57:13;7.05;;;1.55;;
60492;SDS011;46341;51.290;-2.474;2023-04-06T04:59:39;8.05;;;1.80;;
60492;SDS011;46341;51.290;-2.474;2023-04-06T05:02:06;10.23;;;1.88;;
60492;SDS011;46341;51.290;-2.474;2023-04-06T05:04:32;9.43;;;1.77;;
60492;SDS011;46341;51.290;-2.474;2023-04-06T05:07:03;10.70;;;2.28;;
60492;SDS011;46341;51.290;-2.474;2023-04-06T05:09:29;6.65;;;1.58;;
60492;SDS011;46341;51.290;-2.474;2023-04-06T05:11:56;11.20;;;2.42;;
60492;SDS011;46341;51.290;-2.474;2023-04-06T05:14:23;11.65;;;2.08;;
60492;SDS011;46341;51.290;-2.474;2023-04-06T05:16:49;12.23;;;2.45;;
60492;SDS011;46341;51.290;-2.474;2023-04-06T05:19:16;11.25;;;3.30;;
60492;SDS011;46341;51.290;-2.474;2023-04-06T05:21:42;14.55;;;3.55;;
60492;SDS011;46341;51.290;-2.474;2023-04-06T05:24:09;16.77;;;4.45;;
60492;SDS011;46341;51.290;-2.474;2023-04-06T05:26:35;15.02;;;4.38;;
60492;SDS011;46341;51.290;-2.474;2023-04-06T05:29:01;12.32;;;5.15;;
60492;SDS011;46341;51.290;-2.474;2023-04-06T05:31:28;20.55;;;5.68;;
60492;SDS011;46341;51.290;-2.474;2023-04-06T05:33:55;27.70;;;5.28;;
60492;SDS011;46341;51.290;-2.474;2023-04-06T05:36:21;15.45;;;5.95;;
60492;SDS011;46341;51.290;-2.474;2023-04-06T05:38:48;18.67;;;6.80;;
60492;SDS011;46341;51.290;-2.474;2023-04-06T05:41:16;21.30;;;7.05;;
60492;SDS011;46341;51.290;-2.474;2023-04-06T05:43:42;22.27;;;7.45;;
60492;SDS011;46341;51.290;-2.474;2023-04-06T05:46:09;23.75;;;7.43;;
60492;SDS011;46341;51.290;-2.474;2023-04-06T05:48:35;18.38;;;7.40;;
60492;SDS011;46341;51.290;-2.474;2023-04-06T05:51:02;21.77;;;8.23;;
60492;SDS011;46341;51.290;-2.474;2023-04-06T05:53:32;23.25;;;8.07;;
60492;SDS011;46341;51.290;-2.474;2023-04-06T05:56:02;20.25;;;7.32;;
60492;SDS011;46341;51.290;-2.474;2023-04-06T05:58:28;25.38;;;8.23;;
60492;SDS011;46341;51.290;-2.474;2023-04-06T06:00:58;21.50;;;7.13;;
60492;SDS011;46341;51.290;-2.474;2023-04-06T06:03:24;20.40;;;6.97;;
60492;SDS011;46341;51.290;-2.474;2023-04-06T06:05:51;20.23;;;8.13;;
60492;SDS011;46341;51.290;-2.474;2023-04-06T06:08:17;14.35;;;7.63;;
60492;SDS011;46341;51.290;-2.474;2023-04-06T06:10:44;19.80;;;9.68;;
60492;SDS011;46341;51.290;-2.474;2023-04-06T06:13:10;16.92;;;9.75;;
60492;SDS011;46341;51.290;-2.474;2023-04-06T06:15:39;23.23;;;9.75;;
60492;SDS011;46341;51.290;-2.474;2023-04-06T06:18:05;19.80;;;8.80;;
60492;SDS011;46341;51.290;-2.474;2023-04-06T06:20:32;19.65;;;9.77;;
60492;SDS011;46341;51.290;-2.474;2023-04-06T06:22:58;20.73;;;9.63;;
60492;SDS011;46341;51.290;-2.474;2023-04-06T06:25:25;25.98;;;10.98;;
60492;SDS011;46341;51.290;-2.474;2023-04-06T06:27:51;21.77;;;10.25;;
60492;SDS011;46341;51.290;-2.474;2023-04-06T06:30:18;22.67;;;10.98;;
60492;SDS011;46341;51.290;-2.474;2023-04-06T06:32:48;21.10;;;11.20;;
60492;SDS011;46341;51.290;-2.474;2023-04-06T06:35:14;23.52;;;11.55;;
60492;SDS011;46341;51.290;-2.474;2023-04-06T06:37:41;16.42;;;10.70;;
60492;SDS011;46341;51.290;-2.474;2023-04-06T06:40:08;19.80;;;11.50;;
60492;SDS011;46341;51.290;-2.474;2023-04-06T06:42:35;18.42;;;11.02;;
60492;SDS011;46341;51.290;-2.474;2023-04-06T06:45:01;19.30;;;10.80;;
60492;SDS011;46341;51.290;-2.474;2023-04-06T06:47:28;16.65;;;10.80;;
60492;SDS011;46341;51.290;-2.474;2023-04-06T06:49:54;13.63;;;9.25;;
60492;SDS011;46341;51.290;-2.474;2023-04-06T06:52:20;15.38;;;9.75;;
60492;SDS011;46341;51.290;-2.474;2023-04-06T06:54:49;16.90;;;9.90;;
60492;SDS011;46341;51.290;-2.474;2023-04-06T06:57:15;13.32;;;9.27;;
60492;SDS011;46341;51.290;-2.474;2023-04-06T06:59:42;13.20;;;8.23;;
60492;SDS011;46341;51.290;-2.474;2023-04-06T07:02:08;12.48;;;8.48;;
60492;SDS011;46341;51.290;-2.474;2023-04-06T07:04:35;12.32;;;7.70;;
60492;SDS011;46341;51.290;-2.474;2023-04-06T07:07:01;11.70;;;7.68;;
60492;SDS011;46341;51.290;-2.474;2023-04-06T07:09:28;12.13;;;7.40;;
60492;SDS011;46341;51.290;-2.474;2023-04-06T07:11:54;10.80;;;6.95;;
60492;SDS011;46341;51.290;-2.474;2023-04-06T07:14:22;7.95;;;6.40;;
60492;SDS011;46341;51.290;-2.474;2023-04-06T07:16:49;7.78;;;6.30;;
60492;SDS011;46341;51.290;-2.474;2023-04-06T07:19:16;11.32;;;6.90;;
60492;SDS011;46341;51.290;-2.474;2023-04-06T07:21:42;10.25;;;7.65;;
60492;SDS011;46341;51.290;-2.474;2023-04-06T07:24:09;10.68;;;7.28;;
60492;SDS011;46341;51.290;-2.474;2023-04-06T07:26:35;15.88;;;8.32;;
60492;SDS011;46341;51.290;-2.474;2023-04-06T07:29:02;15.38;;;8.55;;
60492;SDS011;46341;51.290;-2.474;2023-04-06T07:31:29;13.10;;;8.10;;
60492;SDS011;46341;51.290;-2.474;2023-04-06T07:33:55;11.03;;;7.50;;
60492;SDS011;46341;51.290;-2.474;2023-04-06T07:36:21;11.65;;;6.38;;
60492;SDS011;46341;51.290;-2.474;2023-04-06T07:38:48;11.75;;;6.05;;
60492;SDS011;46341;51.290;-2.474;2023-04-06T07:41:15;12.20;;;6.32;;
60492;SDS011;46341;51.290;-2.474;2023-04-06T07:43:41;13.25;;;6.38;;
60492;SDS011;46341;51.290;-2.474;2023-04-06T07:46:08;11.25;;;5.45;;
60492;SDS011;46341;51.290;-2.474;2023-04-06T07:48:34;14.43;;;5.78;;
60492;SDS011;46341;51.290;-2.474;2023-04-06T07:51:04;12.70;;;5.53;;
60492;SDS011;46341;51.290;-2.474;2023-04-06T07:53:31;14.75;;;5.72;;
60492;SDS011;46341;51.290;-2.474;2023-04-06T07:56:00;17.08;;;6.10;;
60492;SDS011;46341;51.290;-2.474;2023-04-06T07:58:26;17.45;;;5.68;;
60492;SDS011;46341;51.290;-2.474;2023-04-06T08:00:53;15.88;;;5.85;;
60492;SDS011;46341;51.290;-2.474;2023-04-06T08:03:20;14.45;;;5.60;;
60492;SDS011;46341;51.290;-2.474;2023-04-06T08:05:52;16.63;;;6.40;;
60492;SDS011;46341;51.290;-2.474;2023-04-06T08:08:19;9.63;;;5.28;;
60492;SDS011;46341;51.290;-2.474;2023-04-06T08:10:47;13.25;;;5.38;;
60492;SDS011;46341;51.290;-2.474;2023-04-06T08:13:14;13.07;;;5.10;;
60492;SDS011;46341;51.290;-2.474;2023-04-06T08:15:41;14.18;;;4.78;;
60492;SDS011;46341;51.290;-2.474;2023-04-06T08:18:08;14.50;;;4.63;;
60492;SDS011;46341;51.290;-2.474;2023-04-06T08:20:34;11.73;;;4.50;;
60492;SDS011;46341;51.290;-2.474;2023-04-06T08:23:01;9.63;;;4.20;;
60492;SDS011;46341;51.290;-2.474;2023-04-06T08:25:27;10.63;;;4.68;;
60492;SDS011;46341;51.290;-2.474;2023-04-06T08:27:54;11.77;;;3.83;;
60492;SDS011;46341;51.290;-2.474;2023-04-06T08:30:20;13.02;;;4.32;;
60492;SDS011;46341;51.290;-2.474;2023-04-06T08:32:47;13.40;;;5.20;;
60492;SDS011;46341;51.290;-2.474;2023-04-06T08:35:13;11.27;;;6.03;;
60492;SDS011;46341;51.290;-2.474;2023-04-06T08:37:40;16.55;;;6.35;;
60492;SDS011;46341;51.290;-2.474;2023-04-06T08:40:07;12.82;;;5.10;;
60492;SDS011;46341;51.290;-2.474;2023-04-06T08:42:33;17.80;;;9.05;;
60492;SDS011;46341;51.290;-2.474;2023-04-06T08:45:05;26.52;;;13.88;;
60492;SDS011;46341;51.290;-2.474;2023-04-06T08:47:32;18.65;;;6.90;;
60492;SDS011;46341;51.290;-2.474;2023-04-06T08:49:58;29.77;;;18.70;;
60492;SDS011;46341;51.290;-2.474;2023-04-06T08:52:26;35.72;;;20.23;;
60492;SDS011;46341;51.290;-2.474;2023-04-06T08:54:53;33.53;;;20.02;;
60492;SDS011;46341;51.290;-2.474;2023-04-06T08:57:20;15.33;;;4.97;;
60492;SDS011;46341;51.290;-2.474;2023-04-06T08:59:47;13.43;;;3.72;;
60492;SDS011;46341;51.290;-2.474;2023-04-06T09:02:15;11.75;;;3.70;;
60492;SDS011;46341;51.290;-2.474;2023-04-06T09:04:44;12.95;;;4.28;;
60492;SDS011;46341;51.290;-2.474;2023-04-06T09:07:11;9.93;;;3.65;;
60492;SDS011;46341;51.290;-2.474;2023-04-06T09:09:38;10.98;;;4.68;;
60492;SDS011;46341;51.290;-2.474;2023-04-06T09:12:09;11.32;;;4.20;;
60492;SDS011;46341;51.290;-2.474;2023-04-06T09:14:38;10.75;;;4.40;;
60492;SDS011;46341;51.290;-2.474;2023-04-06T09:17:05;14.70;;;6.20;;
60492;SDS011;46341;51.290;-2.474;2023-04-06T09:19:32;11.30;;;5.10;;
60492;SDS011;46341;51.290;-2.474;2023-04-06T09:22:02;11.60;;;4.95;;
60492;SDS011;46341;51.290;-2.474;2023-04-06T09:24:38;12.75;;;5.82;;
60492;SDS011;46341;51.290;-2.474;2023-04-06T09:27:05;11.50;;;6.13;;
60492;SDS011;46341;51.290;-2.474;2023-04-06T09:29:31;15.95;;;5.35;;
60492;SDS011;46341;51.290;-2.474;2023-04-06T09:32:02;12.98;;;5.43;;
60492;SDS011;46341;51.290;-2.474;2023-04-06T09:34:28;14.18;;;6.13;;
60492;SDS011;46341;51.290;-2.474;2023-04-06T09:36:54;13.68;;;5.88;;
60492;SDS011;46341;51.290;-2.474;2023-04-06T09:39:21;16.00;;;6.68;;
60492;SDS011;46341;51.290;-2.474;2023-04-06T09:41:52;13.38;;;5.38;;
60492;SDS011;46341;51.290;-2.474;2023-04-06T09:44:18;11.68;;;5.57;;
60492;SDS011;46341;51.290;-2.474;2023-04-06T09:46:46;9.88;;;4.82;;
60492;SDS011;46341;51.290;-2.474;2023-04-06T09:49:28;11.30;;;3.55;;
60492;SDS011;46341;51.290;-2.474;2023-04-06T09:51:59;9.15;;;3.95;;
60492;SDS011;46341;51.290;-2.474;2023-04-06T09:54:28;11.13;;;4.00;;
60492;SDS011;46341;51.290;-2.474;2023-04-06T09:59:39;12.77;;;5.05;;
60492;SDS011;46341;51.290;-2.474;2023-04-06T10:02:10;9.93;;;3.67;;
60492;SDS011;46341;51.290;-2.474;2023-04-06T10:04:46;10.70;;;4.53;;
60492;SDS011;46341;51.290;-2.474;2023-04-06T10:07:16;12.30;;;5.22;;
60492;SDS011;46341;51.290;-2.474;2023-04-06T10:09:44;13.73;;;4.38;;
60492;SDS011;46341;51.290;-2.474;2023-04-06T10:12:12;10.45;;;3.17;;
60492;SDS011;46341;51.290;-2.474;2023-04-06T10:14:38;8.45;;;3.88;;
60492;SDS011;46341;51.290;-2.474;2023-04-06T10:17:05;9.10;;;3.27;;
60492;SDS011;46341;51.290;-2.474;2023-04-06T10:19:34;6.10;;;2.75;;
60492;SDS011;46341;51.290;-2.474;2023-04-06T10:22:03;10.45;;;3.50;;
60492;SDS011;46341;51.290;-2.474;2023-04-06T10:24:31;6.85;;;3.15;;
60492;SDS011;46341;51.290;-2.474;2023-04-06T10:27:00;6.90;;;2.13;;
60492;SDS011;46341;51.290;-2.474;2023-04-06T10:29:27;7.40;;;2.10;;
60492;SDS011;46341;51.290;-2.474;2023-04-06T10:31:54;7.57;;;2.90;;
60492;SDS011;46341;51.290;-2.474;2023-04-06T10:34:21;7.72;;;2.50;;
60492;SDS011;46341;51.290;-2.474;2023-04-06T10:36:48;9.98;;;2.60;;
60492;SDS011;46341;51.290;-2.474;2023-04-06T10:39:14;7.37;;;2.60;;
60492;SDS011;46341;51.290;-2.474;2023-04-06T10:41:50;6.50;;;1.90;;
60492;SDS011;46341;51.290;-2.474;2023-04-06T10:44:17;9.23;;;3.07;;
60492;SDS011;46341;51.290;-2.474;2023-04-06T10:46:51;9.07;;;2.83;;
60492;SDS011;46341;51.290;-2.474;2023-04-06T10:49:18;9.88;;;3.22;;
60492;SDS011;46341;51.290;-2.474;2023-04-06T10:51:44;8.70;;;2.70;;
60492;SDS011;46341;51.290;-2.474;2023-04-06T10:54:11;6.43;;;1.60;;
60492;SDS011;46341;51.290;-2.474;2023-04-06T10:56:37;7.00;;;2.08;;
60492;SDS011;46341;51.290;-2.474;2023-04-06T10:59:05;4.97;;;1.40;;
60492;SDS011;46341;51.290;-2.474;2023-04-06T11:01:31;6.38;;;1.40;;
60492;SDS011;46341;51.290;-2.474;2023-04-06T11:03:58;7.00;;;2.55;;
60492;SDS011;46341;51.290;-2.474;2023-04-06T11:06:27;9.57;;;2.75;;
60492;SDS011;46341;51.290;-2.474;2023-04-06T11:08:55;5.85;;;1.75;;
60492;SDS011;46341;51.290;-2.474;2023-04-06T11:11:22;6.30;;;2.50;;
60492;SDS011;46341;51.290;-2.474;2023-04-06T11:13:59;9.27;;;3.30;;
60492;SDS011;46341;51.290;-2.474;2023-04-06T11:16:29;7.60;;;3.10;;
60492;SDS011;46341;51.290;-2.474;2023-04-06T11:18:57;9.05;;;4.90;;
60492;SDS011;46341;51.290;-2.474;2023-04-06T11:24:06;4.30;;;1.15;;
60492;SDS011;46341;51.290;-2.474;2023-04-06T11:26:43;9.45;;;3.15;;
60492;SDS011;46341;51.290;-2.474;2023-04-06T11:31:45;3.03;;;2.05;;
60492;SDS011;46341;51.290;-2.474;2023-04-06T11:34:12;3.83;;;2.70;;
60492;SDS011;46341;51.290;-2.474;2023-04-06T11:39:05;4.28;;;1.58;;
60492;SDS011;46341;51.290;-2.474;2023-04-06T11:41:32;2.50;;;2.13;;
60492;SDS011;46341;51.290;-2.474;2023-04-06T11:44:00;4.20;;;1.60;;
60492;SDS011;46341;51.290;-2.474;2023-04-06T11:46:27;3.97;;;2.03;;
60492;SDS011;46341;51.290;-2.474;2023-04-06T11:48:53;2.90;;;1.70;;
60492;SDS011;46341;51.290;-2.474;2023-04-06T11:51:23;2.90;;;1.13;;
60492;SDS011;46341;51.290;-2.474;2023-04-06T11:53:50;2.80;;;1.70;;
60492;SDS011;46341;51.290;-2.474;2023-04-06T11:56:26;3.60;;;1.60;;
60492;SDS011;46341;51.290;-2.474;2023-04-06T11:58:57;2.78;;;1.73;;
60492;SDS011;46341;51.290;-2.474;2023-04-06T12:01:25;4.97;;;1.90;;
60492;SDS011;46341;51.290;-2.474;2023-04-06T12:03:51;3.08;;;1.65;;
60492;SDS011;46341;51.290;-2.474;2023-04-06T12:06:18;2.88;;;1.10;;
60492;SDS011;46341;51.290;-2.474;2023-04-06T12:08:45;3.70;;;1.55;;
60492;SDS011;46341;51.290;-2.474;2023-04-06T12:11:11;6.00;;;1.52;;
60492;SDS011;46341;51.290;-2.474;2023-04-06T12:13:38;8.25;;;2.10;;
60492;SDS011;46341;51.290;-2.474;2023-04-06T12:16:04;4.57;;;1.40;;
60492;SDS011;46341;51.290;-2.474;2023-04-06T12:18:31;5.13;;;1.65;;
60492;SDS011;46341;51.290;-2.474;2023-04-06T12:20:58;4.18;;;1.33;;
60492;SDS011;46341;51.290;-2.474;2023-04-06T12:23:24;5.63;;;1.92;;
60492;SDS011;46341;51.290;-2.474;2023-04-06T12:25:51;3.63;;;1.27;;
60492;SDS011;46341;51.290;-2.474;2023-04-06T12:28:17;5.93;;;1.63;;
60492;SDS011;46341;51.290;-2.474;2023-04-06T12:30:46;3.83;;;1.48;;
60492;SDS011;46341;51.290;-2.474;2023-04-06T12:35:39;3.13;;;0.98;;
60492;SDS011;46341;51.290;-2.474;2023-04-06T12:38:05;3.58;;;1.00;;
60492;SDS011;46341;51.290;-2.474;2023-04-06T12:40:35;2.78;;;0.68;;
60492;SDS011;46341;51.290;-2.474;2023-04-06T12:43:02;1.33;;;0.70;;
60492;SDS011;46341;51.290;-2.474;2023-04-06T12:45:29;2.75;;;0.80;;
60492;SDS011;46341;51.290;-2.474;2023-04-06T12:47:56;2.88;;;0.70;;
60492;SDS011;46341;51.290;-2.474;2023-04-06T12:52:48;2.33;;;0.68;;
60492;SDS011;46341;51.290;-2.474;2023-04-06T12:55:15;5.90;;;1.30;;
60492;SDS011;46341;51.290;-2.474;2023-04-06T13:02:34;3.45;;;0.80;;
60492;SDS011;46341;51.290;-2.474;2023-04-06T13:05:01;2.95;;;0.70;;
60492;SDS011;46341;51.290;-2.474;2023-04-06T13:07:27;2.05;;;0.77;;
60492;SDS011;46341;51.290;-2.474;2023-04-06T13:09:54;3.90;;;0.70;;
60492;SDS011;46341;51.290;-2.474;2023-04-06T13:12:21;2.17;;;1.00;;
60492;SDS011;46341;51.290;-2.474;2023-04-06T13:14:47;4.00;;;1.20;;
60492;SDS011;46341;51.290;-2.474;2023-04-06T13:17:17;3.13;;;1.00;;
60492;SDS011;46341;51.290;-2.474;2023-04-06T13:19:43;3.20;;;0.82;;
60492;SDS011;46341;51.290;-2.474;2023-04-06T13:24:36;4.85;;;1.55;;
60492;SDS011;46341;51.290;-2.474;2023-04-06T13:27:02;4.93;;;1.02;;
60492;SDS011;46341;51.290;-2.474;2023-04-06T13:29:29;5.38;;;1.30;;
60492;SDS011;46341;51.290;-2.474;2023-04-06T13:31:55;4.72;;;0.95;;
60492;SDS011;46341;51.290;-2.474;2023-04-06T13:34:21;2.97;;;0.88;;
60492;SDS011;46341;51.290;-2.474;2023-04-06T13:36:48;5.07;;;1.17;;
60492;SDS011;46341;51.290;-2.474;2023-04-06T13:39:14;6.80;;;1.60;;
60492;SDS011;46341;51.290;-2.474;2023-04-06T13:41:41;2.95;;;0.73;;
60492;SDS011;46341;51.290;-2.474;2023-04-06T13:44:07;3.42;;;0.73;;
60492;SDS011;46341;51.290;-2.474;2023-04-06T13:46:33;3.33;;;0.60;;
60492;SDS011;46341;51.290;-2.474;2023-04-06T13:49:00;1.27;;;0.50;;
60492;SDS011;46341;51.290;-2.474;2023-04-06T13:51:26;2.72;;;0.50;;
60492;SDS011;46341;51.290;-2.474;2023-04-06T13:53:53;0.50;;;0.30;;
60492;SDS011;46341;51.290;-2.474;2023-04-06T13:56:19;3.83;;;0.40;;
60492;SDS011;46341;51.290;-2.474;2023-04-06T13:58:46;3.40;;;0.87;;
60492;SDS011;46341;51.290;-2.474;2023-04-06T14:01:12;4.07;;;0.80;;
60492;SDS011;46341;51.290;-2.474;2023-04-06T14:03:39;3.53;;;0.90;;
60492;SDS011;46341;51.290;-2.474;2023-04-06T14:06:12;3.55;;;0.93;;
60492;SDS011;46341;51.290;-2.474;2023-04-06T14:08:52;4.00;;;1.30;;
60492;SDS011;46341;51.290;-2.474;2023-04-06T14:11:19;6.10;;;1.47;;
60492;SDS011;46341;51.290;-2.474;2023-04-06T14:13:45;3.97;;;1.27;;
60492;SDS011;46341;51.290;-2.474;2023-04-06T14:16:12;6.15;;;1.30;;
60492;SDS011;46341;51.290;-2.474;2023-04-06T14:18:39;7.80;;;2.05;;
60492;SDS011;46341;51.290;-2.474;2023-04-06T14:21:05;5.50;;;1.30;;
60492;SDS011;46341;51.290;-2.474;2023-04-06T14:23:31;2.33;;;0.70;;
60492;SDS011;46341;51.290;-2.474;2023-04-06T14:26:05;1.55;;;0.63;;
60492;SDS011;46341;51.290;-2.474;2023-04-06T14:28:32;3.78;;;0.80;;
60492;SDS011;46341;51.290;-2.474;2023-04-06T14:30:59;3.22;;;0.70;;
60492;SDS011;46341;51.290;-2.474;2023-04-06T14:33:26;4.45;;;0.90;;
60492;SDS011;46341;51.290;-2.474;2023-04-06T14:35:53;3.35;;;0.55;;
60492;SDS011;46341;51.290;-2.474;2023-04-06T14:38:19;6.70;;;1.15;;
60492;SDS011;46341;51.290;-2.474;2023-04-06T14:40:46;6.28;;;1.00;;
60492;SDS011;46341;51.290;-2.474;2023-04-06T14:43:12;2.33;;;1.00;;
60492;SDS011;46341;51.290;-2.474;2023-04-06T14:45:39;4.32;;;0.88;;
60492;SDS011;46341;51.290;-2.474;2023-04-06T14:48:05;4.88;;;1.05;;
60492;SDS011;46341;51.290;-2.474;2023-04-06T14:52:59;4.78;;;1.10;;
60492;SDS011;46341;51.290;-2.474;2023-04-06T14:55:26;3.65;;;1.02;;